JST706 YMHB-YMML
Flight info
| Callsign | JST706 |
|---|---|
| Flight time | 1h 4m |
| Altitude | 36000 |
| Route | TASUM H111 LT H215 RAZZI W687 ML |
| Aircraft | A21N/M-SDE3FGHIRWY/LB1 |
Departure
| Time | 2026-05-04 05:42 |
|---|---|
| Airport | Hobart International Airport (YMHB) |
Arrival
| Time | 2026-05-04 06:46 |
|---|---|
| Airport | Melbourne Airport (YMML) |
| Time | Latitude | Longitude | Altitude | Speed | Heading |
|---|---|---|---|---|---|
| 2026-05-04 05:10 | -42.83686 | 147.50642 | 21 ft | 0 kts | 255° |
| 2026-05-04 05:34 | -42.83686 | 147.50641 | 21 ft | 0 kts | 278° |
| 2026-05-04 05:34 | -42.83684 | 147.50638 | 21 ft | 0 kts | 304° |
| 2026-05-04 05:35 | -42.83683 | 147.50636 | 21 ft | 0 kts | 335° |
| 2026-05-04 05:35 | -42.83679 | 147.50638 | 21 ft | 0 kts | 359° |
| 2026-05-04 05:35 | -42.83670 | 147.50638 | 21 ft | 1 kts | 359° |
| 2026-05-04 05:35 | -42.83657 | 147.50636 | 21 ft | 2 kts | 359° |
| 2026-05-04 05:36 | -42.83639 | 147.50636 | 21 ft | 2 kts | 359° |
| 2026-05-04 05:36 | -42.83618 | 147.50639 | 21 ft | 3 kts | 18° |
| 2026-05-04 05:36 | -42.83598 | 147.50661 | 21 ft | 4 kts | 43° |
| 2026-05-04 05:36 | -42.83575 | 147.50690 | 21 ft | 4 kts | 49° |
| 2026-05-04 05:37 | -42.83580 | 147.50738 | 21 ft | 7 kts | 114° |
| 2026-05-04 05:37 | -42.83623 | 147.50819 | 21 ft | 13 kts | 137° |
| 2026-05-04 05:37 | -42.83689 | 147.50909 | 21 ft | 13 kts | 133° |
| 2026-05-04 05:38 | -42.83825 | 147.51097 | 21 ft | 14 kts | 135° |
| 2026-05-04 05:38 | -42.83853 | 147.51204 | 21 ft | 13 kts | 53° |
| 2026-05-04 05:38 | -42.83793 | 147.51279 | 21 ft | 11 kts | 38° |
| 2026-05-04 05:38 | -42.83776 | 147.51379 | 21 ft | 12 kts | 111° |
| 2026-05-04 05:39 | -42.83848 | 147.51491 | 21 ft | 19 kts | 134° |
| 2026-05-04 05:39 | -42.84087 | 147.51820 | 21 ft | 26 kts | 135° |
| 2026-05-04 05:39 | -42.84212 | 147.51991 | 21 ft | 24 kts | 135° |
| 2026-05-04 05:40 | -42.84439 | 147.52313 | 21 ft | 22 kts | 132° |
| 2026-05-04 05:40 | -42.84535 | 147.52443 | 21 ft | 12 kts | 158° |
| 2026-05-04 05:40 | -42.84549 | 147.52414 | 21 ft | 3 kts | 359° |
| 2026-05-04 05:41 | -42.84522 | 147.52408 | 21 ft | 4 kts | 323° |
| 2026-05-04 05:41 | -42.84496 | 147.52374 | 21 ft | 9 kts | 314° |
| 2026-05-04 05:41 | -42.84323 | 147.52135 | 21 ft | 74 kts | 316° |
| 2026-05-04 05:41 | -42.83781 | 147.51401 | 21 ft | 144 kts | 315° |
| 2026-05-04 05:42 | -42.83004 | 147.50357 | 476 ft | 161 kts | 317° |
| 2026-05-04 05:42 | -42.82196 | 147.49312 | 1206 ft | 164 kts | 317° |
| 2026-05-04 05:42 | -42.81382 | 147.48261 | 1925 ft | 168 kts | 317° |
| 2026-05-04 05:42 | -42.80513 | 147.47090 | 2373 ft | 185 kts | 315° |
| 2026-05-04 05:43 | -42.79587 | 147.45793 | 2874 ft | 200 kts | 314° |
| 2026-05-04 05:43 | -42.78574 | 147.44388 | 3413 ft | 216 kts | 315° |
| 2026-05-04 05:43 | -42.77458 | 147.42868 | 3939 ft | 235 kts | 315° |
| 2026-05-04 05:45 | -42.67999 | 147.32075 | 9511 ft | 272 kts | 2° |
| 2026-05-04 05:45 | -42.66113 | 147.32329 | 10330 ft | 274 kts | 5° |
| 2026-05-04 05:47 | -42.50980 | 147.33899 | 14501 ft | 332 kts | 4° |
| 2026-05-04 05:47 | -42.48655 | 147.34114 | 15221 ft | 334 kts | 4° |
| 2026-05-04 05:47 | -42.46343 | 147.34325 | 15935 ft | 335 kts | 4° |
| 2026-05-04 05:48 | -42.43999 | 147.34537 | 16628 ft | 337 kts | 3° |
| 2026-05-04 05:48 | -42.41665 | 147.34747 | 17292 ft | 339 kts | 3° |
| 2026-05-04 05:48 | -42.39324 | 147.34955 | 17935 ft | 341 kts | 2° |
| 2026-05-04 05:48 | -42.36935 | 147.35167 | 18571 ft | 343 kts | 2° |
| 2026-05-04 05:49 | -42.34560 | 147.35376 | 19197 ft | 345 kts | 2° |
| 2026-05-04 05:49 | -42.32144 | 147.35588 | 19828 ft | 346 kts | 2° |
| 2026-05-04 05:49 | -42.29736 | 147.35800 | 20436 ft | 347 kts | 2° |
| 2026-05-04 05:49 | -42.27339 | 147.36012 | 21023 ft | 349 kts | 1° |
| 2026-05-04 05:51 | -42.10251 | 147.34596 | 24590 ft | 358 kts | 349° |
| 2026-05-04 05:51 | -42.07808 | 147.34015 | 25031 ft | 360 kts | 349° |
| 2026-05-04 05:52 | -42.05335 | 147.33424 | 25464 ft | 362 kts | 349° |
| 2026-05-04 05:52 | -42.02822 | 147.32825 | 25881 ft | 363 kts | 349° |
| 2026-05-04 05:52 | -42.00321 | 147.32227 | 26280 ft | 365 kts | 349° |
| 2026-05-04 05:52 | -41.97789 | 147.31622 | 26668 ft | 367 kts | 349° |
| 2026-05-04 05:53 | -41.95210 | 147.31007 | 27047 ft | 368 kts | 349° |
| 2026-05-04 05:54 | -41.77199 | 147.26723 | 29445 ft | 379 kts | 349° |
| 2026-05-04 05:55 | -41.74619 | 147.26111 | 29746 ft | 380 kts | 349° |
| 2026-05-04 05:55 | -41.72031 | 147.25497 | 30041 ft | 381 kts | 349° |
| 2026-05-04 05:55 | -41.69399 | 147.24875 | 30366 ft | 382 kts | 349° |
| 2026-05-04 05:55 | -41.66797 | 147.24260 | 30765 ft | 380 kts | 349° |
| 2026-05-04 05:56 | -41.64177 | 147.23642 | 31172 ft | 378 kts | 349° |
| 2026-05-04 05:56 | -41.61586 | 147.23030 | 31510 ft | 378 kts | 349° |
| 2026-05-04 05:56 | -41.59008 | 147.22403 | 31812 ft | 378 kts | 348° |
| 2026-05-04 05:56 | -41.56455 | 147.21635 | 32106 ft | 378 kts | 346° |
| 2026-05-04 05:57 | -41.53920 | 147.20700 | 32398 ft | 377 kts | 343° |
| 2026-05-04 05:57 | -41.51414 | 147.19600 | 32685 ft | 377 kts | 341° |
| 2026-05-04 05:57 | -41.48946 | 147.18339 | 32962 ft | 377 kts | 339° |
| 2026-05-04 05:57 | -41.46512 | 147.17015 | 33231 ft | 377 kts | 339° |
| 2026-05-04 05:58 | -41.44084 | 147.15707 | 33491 ft | 377 kts | 339° |
| 2026-05-04 05:58 | -41.41666 | 147.14404 | 33740 ft | 377 kts | 339° |
| 2026-05-04 05:58 | -41.39230 | 147.13091 | 33982 ft | 376 kts | 339° |
| 2026-05-04 05:58 | -41.36805 | 147.11781 | 34198 ft | 377 kts | 339° |
| 2026-05-04 05:59 | -41.34356 | 147.10458 | 34380 ft | 378 kts | 339° |
| 2026-05-04 05:59 | -41.31911 | 147.09139 | 34546 ft | 379 kts | 339° |
| 2026-05-04 05:59 | -41.29488 | 147.07831 | 34711 ft | 380 kts | 339° |
| 2026-05-04 05:59 | -41.27024 | 147.06500 | 34877 ft | 380 kts | 339° |
| 2026-05-04 06:00 | -41.24559 | 147.05171 | 35037 ft | 381 kts | 338° |
| 2026-05-04 06:00 | -41.22082 | 147.03841 | 35221 ft | 381 kts | 338° |
| 2026-05-04 06:00 | -41.19626 | 147.02518 | 35409 ft | 381 kts | 338° |
| 2026-05-04 06:00 | -41.17142 | 147.01180 | 35556 ft | 381 kts | 338° |
| 2026-05-04 06:01 | -41.14674 | 146.99852 | 35681 ft | 382 kts | 338° |
| 2026-05-04 06:01 | -41.12190 | 146.98523 | 35773 ft | 384 kts | 337° |
| 2026-05-04 06:03 | -40.92165 | 146.87795 | 35873 ft | 387 kts | 337° |
| 2026-05-04 06:05 | -40.68929 | 146.75444 | 35873 ft | 387 kts | 336° |
| 2026-05-04 06:06 | -40.63907 | 146.72784 | 35873 ft | 387 kts | 336° |
| 2026-05-04 06:06 | -40.58874 | 146.70125 | 35870 ft | 387 kts | 336° |
| 2026-05-04 06:07 | -40.53819 | 146.67459 | 35872 ft | 387 kts | 336° |
| 2026-05-04 06:07 | -40.48711 | 146.64769 | 35873 ft | 387 kts | 336° |
| 2026-05-04 06:08 | -40.43637 | 146.62102 | 35873 ft | 387 kts | 336° |
| 2026-05-04 06:08 | -40.38567 | 146.59441 | 35873 ft | 387 kts | 336° |
| 2026-05-04 06:09 | -40.33496 | 146.56782 | 35873 ft | 387 kts | 336° |
| 2026-05-04 06:11 | -40.13176 | 146.46178 | 35873 ft | 387 kts | 336° |
| 2026-05-04 06:13 | -39.92876 | 146.35667 | 35873 ft | 387 kts | 336° |
| 2026-05-04 06:14 | -39.75384 | 146.26694 | 35894 ft | 387 kts | 337° |
| 2026-05-04 06:15 | -39.70397 | 146.24150 | 35898 ft | 387 kts | 336° |
| 2026-05-04 06:15 | -39.65398 | 146.21596 | 35901 ft | 388 kts | 336° |
| 2026-05-04 06:16 | -39.60397 | 146.19046 | 35901 ft | 388 kts | 336° |
| 2026-05-04 06:16 | -39.55373 | 146.16489 | 35701 ft | 389 kts | 336° |
| 2026-05-04 06:17 | -39.52837 | 146.15199 | 35447 ft | 386 kts | 336° |
| 2026-05-04 06:17 | -39.50298 | 146.13908 | 35192 ft | 383 kts | 336° |
| 2026-05-04 06:17 | -39.47780 | 146.12631 | 34936 ft | 380 kts | 336° |
| 2026-05-04 06:17 | -39.45311 | 146.11379 | 34684 ft | 378 kts | 336° |
| 2026-05-04 06:18 | -39.42825 | 146.10120 | 34430 ft | 377 kts | 336° |
| 2026-05-04 06:18 | -39.40349 | 146.08865 | 34177 ft | 377 kts | 336° |
| 2026-05-04 06:18 | -39.37841 | 146.07596 | 33920 ft | 377 kts | 336° |
| 2026-05-04 06:20 | -39.20581 | 145.98894 | 32155 ft | 375 kts | 337° |
| 2026-05-04 06:20 | -39.18130 | 145.97661 | 31902 ft | 375 kts | 337° |
| 2026-05-04 06:21 | -39.08466 | 145.92807 | 30907 ft | 375 kts | 337° |
| 2026-05-04 06:21 | -39.06049 | 145.91595 | 30582 ft | 375 kts | 337° |
| 2026-05-04 06:22 | -39.03634 | 145.90387 | 30135 ft | 375 kts | 337° |
| 2026-05-04 06:22 | -39.01194 | 145.89166 | 29562 ft | 375 kts | 337° |
| 2026-05-04 06:25 | -38.71922 | 145.74596 | 24069 ft | 327 kts | 337° |
| 2026-05-04 06:25 | -38.69811 | 145.73553 | 23585 ft | 329 kts | 336° |
| 2026-05-04 06:26 | -38.67626 | 145.72470 | 22995 ft | 333 kts | 336° |
| 2026-05-04 06:26 | -38.65373 | 145.71352 | 22442 ft | 335 kts | 336° |
| 2026-05-04 06:26 | -38.63154 | 145.70253 | 21948 ft | 336 kts | 336° |
| 2026-05-04 06:26 | -38.60995 | 145.69185 | 21485 ft | 335 kts | 336° |
| 2026-05-04 06:27 | -38.52352 | 145.64922 | 19676 ft | 332 kts | 336° |
| 2026-05-04 06:28 | -38.50199 | 145.63860 | 19231 ft | 331 kts | 336° |
| 2026-05-04 06:28 | -38.48181 | 145.62556 | 18778 ft | 329 kts | 326° |
| 2026-05-04 06:28 | -38.46370 | 145.60785 | 18320 ft | 328 kts | 317° |
| 2026-05-04 06:28 | -38.44836 | 145.58650 | 17863 ft | 327 kts | 310° |
| 2026-05-04 06:29 | -38.43415 | 145.56390 | 17416 ft | 326 kts | 309° |
| 2026-05-04 06:29 | -38.42018 | 145.54134 | 16978 ft | 325 kts | 309° |
| 2026-05-04 06:29 | -38.40626 | 145.51884 | 16540 ft | 324 kts | 309° |
| 2026-05-04 06:29 | -38.39237 | 145.49643 | 16104 ft | 322 kts | 309° |
| 2026-05-04 06:30 | -38.37870 | 145.47441 | 15673 ft | 321 kts | 309° |
| 2026-05-04 06:30 | -38.36483 | 145.45210 | 15237 ft | 319 kts | 309° |
| 2026-05-04 06:30 | -38.35113 | 145.43008 | 14805 ft | 317 kts | 309° |
| 2026-05-04 06:30 | -38.33752 | 145.40823 | 14376 ft | 316 kts | 309° |
| 2026-05-04 06:31 | -38.32398 | 145.38650 | 13948 ft | 314 kts | 309° |
| 2026-05-04 06:31 | -38.31031 | 145.36459 | 13516 ft | 312 kts | 309° |
| 2026-05-04 06:31 | -38.29700 | 145.34329 | 13107 ft | 310 kts | 309° |
| 2026-05-04 06:31 | -38.28353 | 145.32172 | 12697 ft | 308 kts | 309° |
| 2026-05-04 06:32 | -38.27024 | 145.30046 | 12297 ft | 306 kts | 309° |
| 2026-05-04 06:33 | -38.18099 | 145.15807 | 10114 ft | 266 kts | 308° |
| 2026-05-04 06:34 | -38.16970 | 145.14011 | 10036 ft | 253 kts | 308° |
| 2026-05-04 06:34 | -38.15898 | 145.12306 | 9920 ft | 244 kts | 308° |
| 2026-05-04 06:34 | -38.14837 | 145.10617 | 9541 ft | 245 kts | 308° |
| 2026-05-04 06:34 | -38.13786 | 145.08945 | 9208 ft | 243 kts | 308° |
| 2026-05-04 06:35 | -38.12727 | 145.07260 | 8921 ft | 239 kts | 308° |
| 2026-05-04 06:36 | -38.06015 | 144.96683 | 7100 ft | 203 kts | 310° |
| 2026-05-04 06:37 | -38.05148 | 144.95319 | 6848 ft | 199 kts | 310° |
| 2026-05-04 06:37 | -38.04279 | 144.93953 | 6601 ft | 197 kts | 310° |
| 2026-05-04 06:37 | -38.03415 | 144.92595 | 6349 ft | 197 kts | 310° |
| 2026-05-04 06:37 | -38.02546 | 144.91296 | 6096 ft | 195 kts | 319° |
| 2026-05-04 06:38 | -38.01395 | 144.90401 | 5844 ft | 196 kts | 338° |
| 2026-05-04 06:38 | -38.00061 | 144.90027 | 5601 ft | 197 kts | 346° |
| 2026-05-04 06:40 | -37.90933 | 144.88304 | 4096 ft | 166 kts | 347° |
| 2026-05-04 06:40 | -37.89831 | 144.88098 | 3921 ft | 154 kts | 347° |
| 2026-05-04 06:40 | -37.88817 | 144.87909 | 3775 ft | 140 kts | 347° |
| 2026-05-04 06:40 | -37.87886 | 144.87733 | 3660 ft | 135 kts | 347° |
| 2026-05-04 06:41 | -37.86950 | 144.87555 | 3613 ft | 134 kts | 348° |
| 2026-05-04 06:41 | -37.86028 | 144.87380 | 3449 ft | 136 kts | 348° |
| 2026-05-04 06:41 | -37.85100 | 144.87204 | 3242 ft | 133 kts | 348° |
| 2026-05-04 06:41 | -37.84182 | 144.87030 | 3084 ft | 134 kts | 349° |
| 2026-05-04 06:42 | -37.83268 | 144.86859 | 2928 ft | 133 kts | 349° |
| 2026-05-04 06:42 | -37.82355 | 144.86688 | 2996 ft | 133 kts | 349° |
| 2026-05-04 06:42 | -37.81430 | 144.86514 | 2951 ft | 135 kts | 349° |
| 2026-05-04 06:44 | -37.75061 | 144.85318 | 1739 ft | 130 kts | 352° |
| 2026-05-04 06:44 | -37.74176 | 144.85152 | 1561 ft | 130 kts | 352° |
| 2026-05-04 06:44 | -37.73278 | 144.84982 | 1385 ft | 130 kts | 353° |
| 2026-05-04 06:45 | -37.72385 | 144.84816 | 1200 ft | 129 kts | 353° |
| 2026-05-04 06:45 | -37.71497 | 144.84651 | 1017 ft | 129 kts | 354° |
| 2026-05-04 06:45 | -37.70615 | 144.84494 | 865 ft | 129 kts | 353° |
| 2026-05-04 06:45 | -37.69727 | 144.84328 | 692 ft | 128 kts | 353° |
| 2026-05-04 06:46 | -37.68848 | 144.84155 | 522 ft | 126 kts | 354° |
| 2026-05-04 06:46 | -37.68007 | 144.84000 | 442 ft | 112 kts | 353° |
| 2026-05-04 06:46 | -37.67396 | 144.83888 | 442 ft | 64 kts | 351° |
| 2026-05-04 06:46 | -37.67095 | 144.83833 | 442 ft | 33 kts | 351° |
| 2026-05-04 06:48 | -37.66976 | 144.84229 | 442 ft | 18 kts | 171° |
| 2026-05-04 06:48 | -37.67108 | 144.84253 | 442 ft | 19 kts | 171° |
| 2026-05-04 06:49 | -37.67240 | 144.84277 | 442 ft | 19 kts | 172° |
| 2026-05-04 06:50 | -37.67521 | 144.84637 | 442 ft | 0 kts | 171° |